sensor_id;sensor_type;location;lat;lon;timestamp;temperature;humidity
32502;DHT22;18952;52.516;13.460;2023-07-29T00:01:23;17.70;99.90
32502;DHT22;18952;52.516;13.460;2023-07-29T00:03:50;17.70;99.90
32502;DHT22;18952;52.516;13.460;2023-07-29T00:06:17;17.70;99.90
32502;DHT22;18952;52.516;13.460;2023-07-29T00:08:43;17.80;99.90
32502;DHT22;18952;52.516;13.460;2023-07-29T00:11:10;17.80;99.90
32502;DHT22;18952;52.516;13.460;2023-07-29T00:13:37;17.70;99.90
32502;DHT22;18952;52.516;13.460;2023-07-29T00:16:04;17.70;99.90
32502;DHT22;18952;52.516;13.460;2023-07-29T00:18:31;17.70;99.90
32502;DHT22;18952;52.516;13.460;2023-07-29T00:20:58;17.70;99.90
32502;DHT22;18952;52.516;13.460;2023-07-29T00:23:25;17.70;99.90
32502;DHT22;18952;52.516;13.460;2023-07-29T00:25:51;17.60;99.90
32502;DHT22;18952;52.516;13.460;2023-07-29T00:28:18;17.60;99.90
32502;DHT22;18952;52.516;13.460;2023-07-29T00:30:49;17.60;99.90
32502;DHT22;18952;52.516;13.460;2023-07-29T00:33:16;17.60;99.90
32502;DHT22;18952;52.516;13.460;2023-07-29T00:35:42;17.50;99.90
32502;DHT22;18952;52.516;13.460;2023-07-29T00:38:09;17.50;99.90
32502;DHT22;18952;52.516;13.460;2023-07-29T00:40:36;17.50;99.90
32502;DHT22;18952;52.516;13.460;2023-07-29T00:43:03;17.50;99.90
32502;DHT22;18952;52.516;13.460;2023-07-29T00:45:30;17.50;99.90
32502;DHT22;18952;52.516;13.460;2023-07-29T00:47:58;17.50;99.90
32502;DHT22;18952;52.516;13.460;2023-07-29T00:50:26;17.40;99.90
32502;DHT22;18952;52.516;13.460;2023-07-29T00:52:56;17.40;99.90
32502;DHT22;18952;52.516;13.460;2023-07-29T00:55:24;17.40;99.90
32502;DHT22;18952;52.516;13.460;2023-07-29T00:57:51;17.40;99.90
32502;DHT22;18952;52.516;13.460;2023-07-29T01:00:18;17.30;99.90
32502;DHT22;18952;52.516;13.460;2023-07-29T01:02:45;17.30;99.90
32502;DHT22;18952;52.516;13.460;2023-07-29T01:05:13;17.30;99.90
32502;DHT22;18952;52.516;13.460;2023-07-29T01:07:49;17.30;99.90
32502;DHT22;18952;52.516;13.460;2023-07-29T01:10:32;17.30;99.90
32502;DHT22;18952;52.516;13.460;2023-07-29T01:13:13;17.20;99.90
32502;DHT22;18952;52.516;13.460;2023-07-29T01:15:55;17.30;99.90
32502;DHT22;18952;52.516;13.460;2023-07-29T01:18:36;17.20;99.90
32502;DHT22;18952;52.516;13.460;2023-07-29T01:21:08;17.20;99.90
32502;DHT22;18952;52.516;13.460;2023-07-29T01:23:36;17.20;99.90
32502;DHT22;18952;52.516;13.460;2023-07-29T01:26:03;17.10;99.90
32502;DHT22;18952;52.516;13.460;2023-07-29T01:28:30;17.10;99.90
32502;DHT22;18952;52.516;13.460;2023-07-29T01:31:07;17.10;99.90
32502;DHT22;18952;52.516;13.460;2023-07-29T01:33:42;17.20;99.90
32502;DHT22;18952;52.516;13.460;2023-07-29T01:36:17;17.20;99.90
32502;DHT22;18952;52.516;13.460;2023-07-29T01:38:46;17.20;99.90
32502;DHT22;18952;52.516;13.460;2023-07-29T01:41:14;17.20;99.90
32502;DHT22;18952;52.516;13.460;2023-07-29T01:43:42;17.10;99.90
32502;DHT22;18952;52.516;13.460;2023-07-29T01:46:10;17.10;99.90
32502;DHT22;18952;52.516;13.460;2023-07-29T01:48:37;17.10;99.90
32502;DHT22;18952;52.516;13.460;2023-07-29T01:51:05;17.10;99.90
32502;DHT22;18952;52.516;13.460;2023-07-29T01:53:32;17.10;99.90
32502;DHT22;18952;52.516;13.460;2023-07-29T01:55:59;17.10;99.90
32502;DHT22;18952;52.516;13.460;2023-07-29T01:58:26;17.10;99.90
32502;DHT22;18952;52.516;13.460;2023-07-29T02:00:53;17.00;99.90
32502;DHT22;18952;52.516;13.460;2023-07-29T02:03:20;17.00;99.90
32502;DHT22;18952;52.516;13.460;2023-07-29T02:05:46;17.00;99.90
32502;DHT22;18952;52.516;13.460;2023-07-29T02:08:13;17.00;99.90
32502;DHT22;18952;52.516;13.460;2023-07-29T02:10:40;17.00;99.90
32502;DHT22;18952;52.516;13.460;2023-07-29T02:13:07;17.00;99.90
32502;DHT22;18952;52.516;13.460;2023-07-29T02:15:33;17.00;99.90
32502;DHT22;18952;52.516;13.460;2023-07-29T02:18:00;17.00;99.90
32502;DHT22;18952;52.516;13.460;2023-07-29T02:20:27;16.90;99.90
32502;DHT22;18952;52.516;13.460;2023-07-29T02:22:54;16.90;99.90
32502;DHT22;18952;52.516;13.460;2023-07-29T02:25:20;16.90;99.90
32502;DHT22;18952;52.516;13.460;2023-07-29T02:27:47;16.90;99.90
32502;DHT22;18952;52.516;13.460;2023-07-29T02:30:14;16.90;99.90
32502;DHT22;18952;52.516;13.460;2023-07-29T02:32:41;16.90;99.90
32502;DHT22;18952;52.516;13.460;2023-07-29T02:35:08;16.90;99.90
32502;DHT22;18952;52.516;13.460;2023-07-29T02:37:34;16.90;99.90
32502;DHT22;18952;52.516;13.460;2023-07-29T02:40:01;16.80;99.90
32502;DHT22;18952;52.516;13.460;2023-07-29T02:42:28;16.80;99.90
32502;DHT22;18952;52.516;13.460;2023-07-29T02:44:55;16.80;99.90
32502;DHT22;18952;52.516;13.460;2023-07-29T02:47:22;16.80;99.90
32502;DHT22;18952;52.516;13.460;2023-07-29T02:49:48;16.80;99.90
32502;DHT22;18952;52.516;13.460;2023-07-29T02:52:15;16.80;99.90
32502;DHT22;18952;52.516;13.460;2023-07-29T02:54:42;16.70;99.90
32502;DHT22;18952;52.516;13.460;2023-07-29T02:57:09;16.70;99.90
32502;DHT22;18952;52.516;13.460;2023-07-29T02:59:35;16.70;99.90
32502;DHT22;18952;52.516;13.460;2023-07-29T03:02:02;16.70;99.90
32502;DHT22;18952;52.516;13.460;2023-07-29T03:04:29;16.70;99.90
32502;DHT22;18952;52.516;13.460;2023-07-29T03:06:59;16.70;99.90
32502;DHT22;18952;52.516;13.460;2023-07-29T03:09:26;16.70;99.90
32502;DHT22;18952;52.516;13.460;2023-07-29T03:11:53;16.70;99.90
32502;DHT22;18952;52.516;13.460;2023-07-29T03:14:20;16.70;99.90
32502;DHT22;18952;52.516;13.460;2023-07-29T03:16:47;16.70;99.90
32502;DHT22;18952;52.516;13.460;2023-07-29T03:19:15;16.70;99.90
32502;DHT22;18952;52.516;13.460;2023-07-29T03:21:42;16.70;99.90
32502;DHT22;18952;52.516;13.460;2023-07-29T03:24:09;16.60;99.90
32502;DHT22;18952;52.516;13.460;2023-07-29T03:26:35;16.60;99.90
32502;DHT22;18952;52.516;13.460;2023-07-29T03:29:02;16.70;99.90
32502;DHT22;18952;52.516;13.460;2023-07-29T03:31:29;16.70;99.90
32502;DHT22;18952;52.516;13.460;2023-07-29T03:33:56;16.70;99.90
32502;DHT22;18952;52.516;13.460;2023-07-29T03:36:23;16.70;99.90
32502;DHT22;18952;52.516;13.460;2023-07-29T03:38:50;16.70;99.90
32502;DHT22;18952;52.516;13.460;2023-07-29T03:41:16;16.70;99.90
32502;DHT22;18952;52.516;13.460;2023-07-29T03:43:43;16.60;99.90
32502;DHT22;18952;52.516;13.460;2023-07-29T03:46:10;16.60;99.90
32502;DHT22;18952;52.516;13.460;2023-07-29T03:48:38;16.60;99.90
32502;DHT22;18952;52.516;13.460;2023-07-29T03:51:05;16.60;99.90
32502;DHT22;18952;52.516;13.460;2023-07-29T03:53:32;16.60;99.90
32502;DHT22;18952;52.516;13.460;2023-07-29T03:55:58;16.50;99.90
32502;DHT22;18952;52.516;13.460;2023-07-29T03:58:25;16.60;99.90
32502;DHT22;18952;52.516;13.460;2023-07-29T04:00:52;16.60;99.90
32502;DHT22;18952;52.516;13.460;2023-07-29T04:03:18;16.60;99.90
32502;DHT22;18952;52.516;13.460;2023-07-29T04:05:45;16.60;99.90
32502;DHT22;18952;52.516;13.460;2023-07-29T04:08:12;16.60;99.90
32502;DHT22;18952;52.516;13.460;2023-07-29T04:10:39;16.60;99.90
32502;DHT22;18952;52.516;13.460;2023-07-29T04:13:06;16.60;99.90
32502;DHT22;18952;52.516;13.460;2023-07-29T04:15:33;16.60;99.90
32502;DHT22;18952;52.516;13.460;2023-07-29T04:17:59;16.70;99.90
32502;DHT22;18952;52.516;13.460;2023-07-29T04:20:26;16.70;99.90
32502;DHT22;18952;52.516;13.460;2023-07-29T04:22:53;16.70;99.90
32502;DHT22;18952;52.516;13.460;2023-07-29T04:25:20;16.70;99.90
32502;DHT22;18952;52.516;13.460;2023-07-29T04:27:46;16.70;99.90
32502;DHT22;18952;52.516;13.460;2023-07-29T04:30:13;16.80;99.90
32502;DHT22;18952;52.516;13.460;2023-07-29T04:32:40;16.80;99.90
32502;DHT22;18952;52.516;13.460;2023-07-29T04:35:10;16.90;99.90
32502;DHT22;18952;52.516;13.460;2023-07-29T04:37:37;16.90;99.90
32502;DHT22;18952;52.516;13.460;2023-07-29T04:40:04;17.00;99.90
32502;DHT22;18952;52.516;13.460;2023-07-29T04:42:31;17.00;99.90
32502;DHT22;18952;52.516;13.460;2023-07-29T04:44:58;17.10;99.90
32502;DHT22;18952;52.516;13.460;2023-07-29T04:47:25;17.10;99.90
32502;DHT22;18952;52.516;13.460;2023-07-29T04:49:53;17.20;99.90
32502;DHT22;18952;52.516;13.460;2023-07-29T04:52:20;17.20;99.90
32502;DHT22;18952;52.516;13.460;2023-07-29T04:54:46;17.20;99.90
32502;DHT22;18952;52.516;13.460;2023-07-29T04:57:13;17.20;99.90
32502;DHT22;18952;52.516;13.460;2023-07-29T04:59:40;17.30;99.90
32502;DHT22;18952;52.516;13.460;2023-07-29T05:02:07;17.30;99.90
32502;DHT22;18952;52.516;13.460;2023-07-29T05:04:33;17.30;99.90
32502;DHT22;18952;52.516;13.460;2023-07-29T05:07:00;17.40;99.90
32502;DHT22;18952;52.516;13.460;2023-07-29T05:09:27;17.40;99.90
32502;DHT22;18952;52.516;13.460;2023-07-29T05:11:54;17.40;99.90
32502;DHT22;18952;52.516;13.460;2023-07-29T05:14:21;17.40;99.90
32502;DHT22;18952;52.516;13.460;2023-07-29T05:16:48;17.50;99.90
32502;DHT22;18952;52.516;13.460;2023-07-29T05:19:15;17.50;99.90
32502;DHT22;18952;52.516;13.460;2023-07-29T05:21:42;17.50;99.90
32502;DHT22;18952;52.516;13.460;2023-07-29T05:24:09;17.50;99.90
32502;DHT22;18952;52.516;13.460;2023-07-29T05:26:36;17.50;99.90
32502;DHT22;18952;52.516;13.460;2023-07-29T05:29:03;17.50;99.90
32502;DHT22;18952;52.516;13.460;2023-07-29T05:31:29;17.50;99.90
32502;DHT22;18952;52.516;13.460;2023-07-29T05:33:56;17.60;99.90
32502;DHT22;18952;52.516;13.460;2023-07-29T05:36:23;17.60;99.90
32502;DHT22;18952;52.516;13.460;2023-07-29T05:38:51;17.80;99.90
32502;DHT22;18952;52.516;13.460;2023-07-29T05:41:18;17.90;99.90
32502;DHT22;18952;52.516;13.460;2023-07-29T05:43:45;18.00;99.90
32502;DHT22;18952;52.516;13.460;2023-07-29T05:46:12;18.00;99.90
32502;DHT22;18952;52.516;13.460;2023-07-29T05:48:39;18.10;99.90
32502;DHT22;18952;52.516;13.460;2023-07-29T05:51:05;18.10;99.90
32502;DHT22;18952;52.516;13.460;2023-07-29T05:53:32;18.10;99.90
32502;DHT22;18952;52.516;13.460;2023-07-29T05:55:59;18.10;99.90
32502;DHT22;18952;52.516;13.460;2023-07-29T05:58:26;18.10;99.90
32502;DHT22;18952;52.516;13.460;2023-07-29T06:00:53;18.10;99.90
32502;DHT22;18952;52.516;13.460;2023-07-29T06:03:19;18.10;99.90
32502;DHT22;18952;52.516;13.460;2023-07-29T06:05:48;18.10;99.90
32502;DHT22;18952;52.516;13.460;2023-07-29T06:08:16;18.00;99.90
32502;DHT22;18952;52.516;13.460;2023-07-29T06:10:43;18.10;99.90
32502;DHT22;18952;52.516;13.460;2023-07-29T06:13:10;18.10;99.90
32502;DHT22;18952;52.516;13.460;2023-07-29T06:15:37;18.10;99.90
32502;DHT22;18952;52.516;13.460;2023-07-29T06:18:03;18.20;99.90
32502;DHT22;18952;52.516;13.460;2023-07-29T06:20:30;18.10;99.90
32502;DHT22;18952;52.516;13.460;2023-07-29T06:22:57;18.10;99.90
32502;DHT22;18952;52.516;13.460;2023-07-29T06:25:24;18.10;99.90
32502;DHT22;18952;52.516;13.460;2023-07-29T06:27:51;18.20;99.90
32502;DHT22;18952;52.516;13.460;2023-07-29T06:30:18;18.20;99.90
32502;DHT22;18952;52.516;13.460;2023-07-29T06:32:44;18.20;99.90
32502;DHT22;18952;52.516;13.460;2023-07-29T06:35:11;18.30;99.90
32502;DHT22;18952;52.516;13.460;2023-07-29T06:37:38;18.30;99.90
32502;DHT22;18952;52.516;13.460;2023-07-29T06:40:05;18.40;99.90
32502;DHT22;18952;52.516;13.460;2023-07-29T06:42:32;18.40;99.90
32502;DHT22;18952;52.516;13.460;2023-07-29T06:44:59;18.50;99.90
32502;DHT22;18952;52.516;13.460;2023-07-29T06:47:25;18.50;99.90
32502;DHT22;18952;52.516;13.460;2023-07-29T06:49:53;18.50;99.90
32502;DHT22;18952;52.516;13.460;2023-07-29T06:52:20;18.60;99.90
32502;DHT22;18952;52.516;13.460;2023-07-29T06:54:47;18.60;99.90
32502;DHT22;18952;52.516;13.460;2023-07-29T06:57:14;18.70;99.90
32502;DHT22;18952;52.516;13.460;2023-07-29T06:59:41;18.80;99.90
32502;DHT22;18952;52.516;13.460;2023-07-29T07:02:07;18.90;99.90
32502;DHT22;18952;52.516;13.460;2023-07-29T07:04:34;18.90;99.90
32502;DHT22;18952;52.516;13.460;2023-07-29T07:07:01;19.00;99.90
32502;DHT22;18952;52.516;13.460;2023-07-29T07:09:28;19.10;99.90
32502;DHT22;18952;52.516;13.460;2023-07-29T07:11:55;19.20;99.90
32502;DHT22;18952;52.516;13.460;2023-07-29T07:14:21;19.20;99.90
32502;DHT22;18952;52.516;13.460;2023-07-29T07:16:48;19.20;99.90
32502;DHT22;18952;52.516;13.460;2023-07-29T07:19:15;19.40;99.90
32502;DHT22;18952;52.516;13.460;2023-07-29T07:21:42;19.40;99.90
32502;DHT22;18952;52.516;13.460;2023-07-29T07:24:08;19.50;99.90
32502;DHT22;18952;52.516;13.460;2023-07-29T07:26:35;19.50;99.90
32502;DHT22;18952;52.516;13.460;2023-07-29T07:29:02;19.60;99.90
32502;DHT22;18952;52.516;13.460;2023-07-29T07:31:33;19.70;99.90
32502;DHT22;18952;52.516;13.460;2023-07-29T07:34:00;19.80;99.90
32502;DHT22;18952;52.516;13.460;2023-07-29T07:36:27;19.70;99.90
32502;DHT22;18952;52.516;13.460;2023-07-29T07:38:53;19.80;99.90
32502;DHT22;18952;52.516;13.460;2023-07-29T07:41:20;19.90;99.90
32502;DHT22;18952;52.516;13.460;2023-07-29T07:43:47;20.00;99.90
32502;DHT22;18952;52.516;13.460;2023-07-29T07:46:14;20.10;99.90
32502;DHT22;18952;52.516;13.460;2023-07-29T07:48:41;20.20;99.90
32502;DHT22;18952;52.516;13.460;2023-07-29T07:51:13;20.30;99.90
32502;DHT22;18952;52.516;13.460;2023-07-29T07:53:40;20.40;99.90
32502;DHT22;18952;52.516;13.460;2023-07-29T07:56:07;20.40;99.90
32502;DHT22;18952;52.516;13.460;2023-07-29T07:58:34;20.40;99.90
32502;DHT22;18952;52.516;13.460;2023-07-29T08:01:08;20.40;99.90
32502;DHT22;18952;52.516;13.460;2023-07-29T08:03:35;20.50;99.90
32502;DHT22;18952;52.516;13.460;2023-07-29T08:06:04;20.40;99.90
32502;DHT22;18952;52.516;13.460;2023-07-29T08:08:33;20.40;99.90
32502;DHT22;18952;52.516;13.460;2023-07-29T08:11:01;20.40;99.90
32502;DHT22;18952;52.516;13.460;2023-07-29T08:13:28;20.30;99.90
32502;DHT22;18952;52.516;13.460;2023-07-29T08:15:54;20.40;99.90
32502;DHT22;18952;52.516;13.460;2023-07-29T08:18:21;20.40;99.90
32502;DHT22;18952;52.516;13.460;2023-07-29T08:20:55;20.50;99.90
32502;DHT22;18952;52.516;13.460;2023-07-29T08:23:23;20.60;99.90
32502;DHT22;18952;52.516;13.460;2023-07-29T08:25:53;20.70;99.90
32502;DHT22;18952;52.516;13.460;2023-07-29T08:28:20;20.80;99.90
32502;DHT22;18952;52.516;13.460;2023-07-29T08:30:47;20.80;99.90
32502;DHT22;18952;52.516;13.460;2023-07-29T08:33:14;21.00;99.90
32502;DHT22;18952;52.516;13.460;2023-07-29T08:35:41;21.20;99.90
32502;DHT22;18952;52.516;13.460;2023-07-29T08:38:08;21.30;99.90
32502;DHT22;18952;52.516;13.460;2023-07-29T08:40:37;21.50;99.90
32502;DHT22;18952;52.516;13.460;2023-07-29T08:43:09;21.60;99.90
32502;DHT22;18952;52.516;13.460;2023-07-29T08:45:38;21.70;99.90
32502;DHT22;18952;52.516;13.460;2023-07-29T08:48:10;21.80;99.90
32502;DHT22;18952;52.516;13.460;2023-07-29T08:50:37;21.90;99.90
32502;DHT22;18952;52.516;13.460;2023-07-29T08:53:05;21.90;99.90
32502;DHT22;18952;52.516;13.460;2023-07-29T08:55:32;21.90;99.90
32502;DHT22;18952;52.516;13.460;2023-07-29T08:58:00;21.90;99.90
32502;DHT22;18952;52.516;13.460;2023-07-29T09:00:27;21.90;99.90
32502;DHT22;18952;52.516;13.460;2023-07-29T09:02:54;21.80;99.90
32502;DHT22;18952;52.516;13.460;2023-07-29T09:05:21;21.80;99.90
32502;DHT22;18952;52.516;13.460;2023-07-29T09:07:51;21.90;99.90
32502;DHT22;18952;52.516;13.460;2023-07-29T09:10:22;22.00;99.90
32502;DHT22;18952;52.516;13.460;2023-07-29T09:12:49;22.10;99.90
32502;DHT22;18952;52.516;13.460;2023-07-29T09:15:33;22.20;99.90
32502;DHT22;18952;52.516;13.460;2023-07-29T09:18:12;22.30;99.90
32502;DHT22;18952;52.516;13.460;2023-07-29T09:20:40;22.50;99.90
32502;DHT22;18952;52.516;13.460;2023-07-29T09:23:09;22.60;99.90
32502;DHT22;18952;52.516;13.460;2023-07-29T09:25:37;22.80;99.90
32502;DHT22;18952;52.516;13.460;2023-07-29T09:28:11;22.80;99.90
32502;DHT22;18952;52.516;13.460;2023-07-29T09:30:44;22.90;99.90
32502;DHT22;18952;52.516;13.460;2023-07-29T09:33:11;23.00;99.90
32502;DHT22;18952;52.516;13.460;2023-07-29T09:35:40;23.00;99.90
32502;DHT22;18952;52.516;13.460;2023-07-29T09:38:07;23.10;99.90
32502;DHT22;18952;52.516;13.460;2023-07-29T09:40:38;23.20;99.90
32502;DHT22;18952;52.516;13.460;2023-07-29T09:43:07;23.30;99.90
32502;DHT22;18952;52.516;13.460;2023-07-29T09:45:35;23.30;99.90
32502;DHT22;18952;52.516;13.460;2023-07-29T09:48:04;23.40;99.90
32502;DHT22;18952;52.516;13.460;2023-07-29T09:50:31;23.50;99.90
32502;DHT22;18952;52.516;13.460;2023-07-29T09:52:58;23.60;99.90
32502;DHT22;18952;52.516;13.460;2023-07-29T09:55:25;23.70;99.90
32502;DHT22;18952;52.516;13.460;2023-07-29T09:57:56;23.60;99.90
32502;DHT22;18952;52.516;13.460;2023-07-29T10:00:24;23.60;99.90
32502;DHT22;18952;52.516;13.460;2023-07-29T10:02:52;23.40;99.90
32502;DHT22;18952;52.516;13.460;2023-07-29T10:05:21;23.40;99.90
32502;DHT22;18952;52.516;13.460;2023-07-29T10:07:49;23.50;99.90
32502;DHT22;18952;52.516;13.460;2023-07-29T10:10:16;23.60;99.90
32502;DHT22;18952;52.516;13.460;2023-07-29T10:12:43;23.70;99.90
32502;DHT22;18952;52.516;13.460;2023-07-29T10:15:10;23.70;99.90
32502;DHT22;18952;52.516;13.460;2023-07-29T10:17:39;23.70;99.90
32502;DHT22;18952;52.516;13.460;2023-07-29T10:20:08;23.70;99.90
32502;DHT22;18952;52.516;13.460;2023-07-29T10:22:47;23.90;99.90
32502;DHT22;18952;52.516;13.460;2023-07-29T10:25:17;24.00;99.90
32502;DHT22;18952;52.516;13.460;2023-07-29T10:28:07;24.10;99.90
32502;DHT22;18952;52.516;13.460;2023-07-29T10:30:34;24.10;99.90
32502;DHT22;18952;52.516;13.460;2023-07-29T10:33:05;24.10;99.90
32502;DHT22;18952;52.516;13.460;2023-07-29T10:35:33;24.10;99.90
32502;DHT22;18952;52.516;13.460;2023-07-29T10:38:01;24.10;99.90
32502;DHT22;18952;52.516;13.460;2023-07-29T10:43:26;23.90;99.90
32502;DHT22;18952;52.516;13.460;2023-07-29T10:45:55;23.70;99.90
32502;DHT22;18952;52.516;13.460;2023-07-29T10:48:42;23.50;99.90
32502;DHT22;18952;52.516;13.460;2023-07-29T10:53:57;23.40;99.90
32502;DHT22;18952;52.516;13.460;2023-07-29T10:56:34;23.50;99.90
32502;DHT22;18952;52.516;13.460;2023-07-29T11:01:39;23.70;99.90
32502;DHT22;18952;52.516;13.460;2023-07-29T11:09:53;23.40;99.90
32502;DHT22;18952;52.516;13.460;2023-07-29T11:17:57;23.00;99.90
32502;DHT22;18952;52.516;13.460;2023-07-29T11:22:54;22.80;99.90
32502;DHT22;18952;52.516;13.460;2023-07-29T11:25:26;22.60;99.90
32502;DHT22;18952;52.516;13.460;2023-07-29T11:27:55;21.60;99.90
32502;DHT22;18952;52.516;13.460;2023-07-29T11:30:25;19.90;99.90
32502;DHT22;18952;52.516;13.460;2023-07-29T11:32:53;18.60;99.90
32502;DHT22;18952;52.516;13.460;2023-07-29T11:35:21;18.00;99.90
32502;DHT22;18952;52.516;13.460;2023-07-29T11:37:53;17.70;99.90
32502;DHT22;18952;52.516;13.460;2023-07-29T11:40:31;17.70;99.90
32502;DHT22;18952;52.516;13.460;2023-07-29T11:43:07;17.80;99.90
32502;DHT22;18952;52.516;13.460;2023-07-29T11:45:41;17.80;99.90
32502;DHT22;18952;52.516;13.460;2023-07-29T11:48:44;18.00;99.90
32502;DHT22;18952;52.516;13.460;2023-07-29T11:51:19;18.00;99.90
32502;DHT22;18952;52.516;13.460;2023-07-29T11:53:56;18.10;99.90
32502;DHT22;18952;52.516;13.460;2023-07-29T11:56:24;18.30;99.90
32502;DHT22;18952;52.516;13.460;2023-07-29T11:58:51;18.40;99.90
32502;DHT22;18952;52.516;13.460;2023-07-29T12:01:23;18.50;99.90
32502;DHT22;18952;52.516;13.460;2023-07-29T12:03:55;18.60;99.90
32502;DHT22;18952;52.516;13.460;2023-07-29T12:06:26;18.70;99.90
32502;DHT22;18952;52.516;13.460;2023-07-29T12:08:53;18.70;99.90
32502;DHT22;18952;52.516;13.460;2023-07-29T12:11:21;18.80;99.90
32502;DHT22;18952;52.516;13.460;2023-07-29T12:14:02;18.80;99.90
32502;DHT22;18952;52.516;13.460;2023-07-29T12:16:30;18.90;99.90
32502;DHT22;18952;52.516;13.460;2023-07-29T12:19:11;18.90;99.90
32502;DHT22;18952;52.516;13.460;2023-07-29T12:21:42;18.80;99.90
32502;DHT22;18952;52.516;13.460;2023-07-29T12:24:09;18.90;99.90
32502;DHT22;18952;52.516;13.460;2023-07-29T12:26:36;18.90;99.90
32502;DHT22;18952;52.516;13.460;2023-07-29T12:29:13;18.90;99.90
32502;DHT22;18952;52.516;13.460;2023-07-29T12:31:40;18.90;99.90
32502;DHT22;18952;52.516;13.460;2023-07-29T12:34:08;18.90;99.90
32502;DHT22;18952;52.516;13.460;2023-07-29T12:36:47;19.00;99.90
32502;DHT22;18952;52.516;13.460;2023-07-29T12:39:21;19.00;99.90
32502;DHT22;18952;52.516;13.460;2023-07-29T12:41:49;19.10;99.90
32502;DHT22;18952;52.516;13.460;2023-07-29T12:44:16;19.20;99.90
32502;DHT22;18952;52.516;13.460;2023-07-29T12:46:43;19.30;99.90
32502;DHT22;18952;52.516;13.460;2023-07-29T12:49:10;19.40;99.90
32502;DHT22;18952;52.516;13.460;2023-07-29T12:51:37;19.50;99.90
32502;DHT22;18952;52.516;13.460;2023-07-29T12:54:04;19.70;99.90
32502;DHT22;18952;52.516;13.460;2023-07-29T12:56:32;19.90;99.90
32502;DHT22;18952;52.516;13.460;2023-07-29T12:59:00;20.20;99.90
32502;DHT22;18952;52.516;13.460;2023-07-29T13:01:27;20.60;99.90
32502;DHT22;18952;52.516;13.460;2023-07-29T13:03:55;21.00;99.90
32502;DHT22;18952;52.516;13.460;2023-07-29T13:06:22;21.20;99.90
32502;DHT22;18952;52.516;13.460;2023-07-29T13:09:02;21.30;99.90
32502;DHT22;18952;52.516;13.460;2023-07-29T13:11:29;21.40;99.90
32502;DHT22;18952;52.516;13.460;2023-07-29T13:14:03;21.70;99.90
32502;DHT22;18952;52.516;13.460;2023-07-29T13:16:34;21.90;99.90
32502;DHT22;18952;52.516;13.460;2023-07-29T13:19:01;21.80;99.90
32502;DHT22;18952;52.516;13.460;2023-07-29T13:21:28;21.60;99.90
32502;DHT22;18952;52.516;13.460;2023-07-29T13:23:55;21.60;99.90
32502;DHT22;18952;52.516;13.460;2023-07-29T13:26:22;21.40;99.90
32502;DHT22;18952;52.516;13.460;2023-07-29T13:28:49;21.20;99.90
32502;DHT22;18952;52.516;13.460;2023-07-29T13:31:21;21.00;99.90
32502;DHT22;18952;52.516;13.460;2023-07-29T13:33:50;20.90;99.90
32502;DHT22;18952;52.516;13.460;2023-07-29T13:36:17;20.90;99.90
32502;DHT22;18952;52.516;13.460;2023-07-29T13:38:43;21.10;99.90
32502;DHT22;18952;52.516;13.460;2023-07-29T13:41:10;21.40;99.90
32502;DHT22;18952;52.516;13.460;2023-07-29T13:43:37;21.90;99.90
32502;DHT22;18952;52.516;13.460;2023-07-29T13:46:03;22.20;99.90
32502;DHT22;18952;52.516;13.460;2023-07-29T13:48:30;22.70;99.90
32502;DHT22;18952;52.516;13.460;2023-07-29T13:50:57;23.00;99.90
32502;DHT22;18952;52.516;13.460;2023-07-29T13:53:24;23.00;99.90
32502;DHT22;18952;52.516;13.460;2023-07-29T13:55:51;22.90;99.90
32502;DHT22;18952;52.516;13.460;2023-07-29T13:58:18;23.10;99.90
32502;DHT22;18952;52.516;13.460;2023-07-29T14:00:45;23.40;99.90
32502;DHT22;18952;52.516;13.460;2023-07-29T14:03:11;23.60;99.90
32502;DHT22;18952;52.516;13.460;2023-07-29T14:05:38;23.50;99.90
32502;DHT22;18952;52.516;13.460;2023-07-29T14:08:05;23.30;99.90
32502;DHT22;18952;52.516;13.460;2023-07-29T14:10:32;23.10;99.90
32502;DHT22;18952;52.516;13.460;2023-07-29T14:12:59;23.10;99.90
32502;DHT22;18952;52.516;13.460;2023-07-29T14:15:26;23.00;99.90
32502;DHT22;18952;52.516;13.460;2023-07-29T14:17:53;22.90;99.90
32502;DHT22;18952;52.516;13.460;2023-07-29T14:20:21;22.80;99.90
32502;DHT22;18952;52.516;13.460;2023-07-29T14:22:48;22.60;99.90
32502;DHT22;18952;52.516;13.460;2023-07-29T14:25:15;22.60;99.90
32502;DHT22;18952;52.516;13.460;2023-07-29T14:27:42;22.40;99.90
32502;DHT22;18952;52.516;13.460;2023-07-29T14:30:09;22.20;99.90
32502;DHT22;18952;52.516;13.460;2023-07-29T14:32:35;22.20;99.90
32502;DHT22;18952;52.516;13.460;2023-07-29T14:35:03;22.20;99.90
32502;DHT22;18952;52.516;13.460;2023-07-29T14:37:31;22.30;99.90
32502;DHT22;18952;52.516;13.460;2023-07-29T14:39:58;22.60;99.90
32502;DHT22;18952;52.516;13.460;2023-07-29T14:42:26;22.70;99.90
32502;DHT22;18952;52.516;13.460;2023-07-29T14:44:53;22.60;99.90
32502;DHT22;18952;52.516;13.460;2023-07-29T14:47:20;22.60;99.90
32502;DHT22;18952;52.516;13.460;2023-07-29T14:49:47;22.50;99.90
32502;DHT22;18952;52.516;13.460;2023-07-29T14:52:14;22.50;99.90
32502;DHT22;18952;52.516;13.460;2023-07-29T14:54:41;22.80;99.90
32502;DHT22;18952;52.516;13.460;2023-07-29T14:57:10;23.10;99.90
32502;DHT22;18952;52.516;13.460;2023-07-29T14:59:37;23.10;99.90
32502;DHT22;18952;52.516;13.460;2023-07-29T15:02:04;23.00;99.90
32502;DHT22;18952;52.516;13.460;2023-07-29T15:04:31;22.80;99.90
32502;DHT22;18952;52.516;13.460;2023-07-29T15:06:58;22.60;99.90
32502;DHT22;18952;52.516;13.460;2023-07-29T15:09:24;22.40;99.90
32502;DHT22;18952;52.516;13.460;2023-07-29T15:11:51;22.30;99.90
32502;DHT22;18952;52.516;13.460;2023-07-29T15:14:18;22.30;99.90
32502;DHT22;18952;52.516;13.460;2023-07-29T15:16:45;22.30;99.90
32502;DHT22;18952;52.516;13.460;2023-07-29T15:19:12;22.20;99.90
32502;DHT22;18952;52.516;13.460;2023-07-29T15:21:42;22.10;99.90
32502;DHT22;18952;52.516;13.460;2023-07-29T15:24:09;22.00;99.90
32502;DHT22;18952;52.516;13.460;2023-07-29T15:26:35;21.90;99.90
32502;DHT22;18952;52.516;13.460;2023-07-29T15:29:03;21.80;99.90
32502;DHT22;18952;52.516;13.460;2023-07-29T15:31:30;21.80;99.90
32502;DHT22;18952;52.516;13.460;2023-07-29T15:33:57;21.60;99.90
32502;DHT22;18952;52.516;13.460;2023-07-29T15:36:23;21.60;99.90
32502;DHT22;18952;52.516;13.460;2023-07-29T15:38:50;21.50;99.90
32502;DHT22;18952;52.516;13.460;2023-07-29T15:41:17;21.40;99.90
32502;DHT22;18952;52.516;13.460;2023-07-29T15:43:44;21.40;99.90